sensor_id;sensor_type;location;lat;lon;timestamp;P1;durP1;ratioP1;P2;durP2;ratioP2
3811;SDS011;1921;49.368;11.068;2023-05-02T00:00:26;58.77;;;52.60;;
3811;SDS011;1921;49.368;11.068;2023-05-02T00:02:52;64.60;;;50.77;;
3811;SDS011;1921;49.368;11.068;2023-05-02T00:05:18;57.60;;;51.60;;
3811;SDS011;1921;49.368;11.068;2023-05-02T00:07:44;63.50;;;52.20;;
3811;SDS011;1921;49.368;11.068;2023-05-02T00:10:10;67.43;;;52.40;;
3811;SDS011;1921;49.368;11.068;2023-05-02T00:12:36;59.43;;;52.10;;
3811;SDS011;1921;49.368;11.068;2023-05-02T00:15:03;56.77;;;50.97;;
3811;SDS011;1921;49.368;11.068;2023-05-02T00:17:30;60.20;;;53.70;;
3811;SDS011;1921;49.368;11.068;2023-05-02T00:19:55;58.10;;;51.90;;
3811;SDS011;1921;49.368;11.068;2023-05-02T00:22:21;59.13;;;52.50;;
3811;SDS011;1921;49.368;11.068;2023-05-02T00:24:47;59.80;;;52.77;;
3811;SDS011;1921;49.368;11.068;2023-05-02T00:27:13;61.93;;;52.87;;
3811;SDS011;1921;49.368;11.068;2023-05-02T00:29:39;58.20;;;51.90;;
3811;SDS011;1921;49.368;11.068;2023-05-02T00:32:05;64.33;;;53.80;;
3811;SDS011;1921;49.368;11.068;2023-05-02T00:34:31;59.50;;;53.00;;
3811;SDS011;1921;49.368;11.068;2023-05-02T00:36:57;64.90;;;54.80;;
3811;SDS011;1921;49.368;11.068;2023-05-02T00:39:23;60.07;;;53.60;;
3811;SDS011;1921;49.368;11.068;2023-05-02T00:41:55;70.30;;;55.67;;
3811;SDS011;1921;49.368;11.068;2023-05-02T00:44:22;63.20;;;54.47;;
3811;SDS011;1921;49.368;11.068;2023-05-02T00:46:47;59.70;;;53.20;;
3811;SDS011;1921;49.368;11.068;2023-05-02T00:49:13;59.10;;;52.73;;
3811;SDS011;1921;49.368;11.068;2023-05-02T00:51:39;60.30;;;53.27;;
3811;SDS011;1921;49.368;11.068;2023-05-02T00:54:05;63.70;;;54.70;;
3811;SDS011;1921;49.368;11.068;2023-05-02T00:56:31;65.27;;;54.37;;
3811;SDS011;1921;49.368;11.068;2023-05-02T00:58:56;61.03;;;54.37;;
3811;SDS011;1921;49.368;11.068;2023-05-02T01:07:27;58.00;;;51.70;;
3811;SDS011;1921;49.368;11.068;2023-05-02T01:13:29;60.93;;;51.40;;
3811;SDS011;1921;49.368;11.068;2023-05-02T01:15:59;60.40;;;53.00;;
3811;SDS011;1921;49.368;11.068;2023-05-02T01:18:28;57.60;;;51.30;;
3811;SDS011;1921;49.368;11.068;2023-05-02T01:20:59;57.70;;;51.50;;
3811;SDS011;1921;49.368;11.068;2023-05-02T01:23:34;57.97;;;50.90;;
3811;SDS011;1921;49.368;11.068;2023-05-02T01:26:33;56.43;;;50.77;;
3811;SDS011;1921;49.368;11.068;2023-05-02T01:29:10;56.83;;;51.00;;
3811;SDS011;1921;49.368;11.068;2023-05-02T01:31:38;58.20;;;52.00;;
3811;SDS011;1921;49.368;11.068;2023-05-02T01:34:08;57.20;;;51.03;;
3811;SDS011;1921;49.368;11.068;2023-05-02T01:36:35;61.43;;;50.90;;
3811;SDS011;1921;49.368;11.068;2023-05-02T01:39:07;57.17;;;51.10;;
3811;SDS011;1921;49.368;11.068;2023-05-02T01:41:36;56.50;;;50.70;;
3811;SDS011;1921;49.368;11.068;2023-05-02T01:44:03;56.00;;;50.40;;
3811;SDS011;1921;49.368;11.068;2023-05-02T01:46:35;57.20;;;50.90;;
3811;SDS011;1921;49.368;11.068;2023-05-02T01:49:05;59.40;;;52.90;;
3811;SDS011;1921;49.368;11.068;2023-05-02T01:51:34;55.27;;;49.90;;
3811;SDS011;1921;49.368;11.068;2023-05-02T01:54:07;57.00;;;51.07;;
3811;SDS011;1921;49.368;11.068;2023-05-02T01:56:37;57.73;;;50.60;;
3811;SDS011;1921;49.368;11.068;2023-05-02T01:59:08;56.37;;;50.77;;
3811;SDS011;1921;49.368;11.068;2023-05-02T02:01:38;56.80;;;50.87;;
3811;SDS011;1921;49.368;11.068;2023-05-02T02:04:05;58.00;;;51.80;;
3811;SDS011;1921;49.368;11.068;2023-05-02T02:06:35;58.60;;;52.30;;
3811;SDS011;1921;49.368;11.068;2023-05-02T02:09:01;64.53;;;50.60;;
3811;SDS011;1921;49.368;11.068;2023-05-02T02:11:35;55.47;;;49.90;;
3811;SDS011;1921;49.368;11.068;2023-05-02T02:14:15;47.60;;;43.70;;
3811;SDS011;1921;49.368;11.068;2023-05-02T02:16:45;58.20;;;52.10;;
3811;SDS011;1921;49.368;11.068;2023-05-02T02:19:14;55.90;;;49.97;;
3811;SDS011;1921;49.368;11.068;2023-05-02T02:21:42;55.83;;;50.07;;
3811;SDS011;1921;49.368;11.068;2023-05-02T02:24:09;55.03;;;49.40;;
3811;SDS011;1921;49.368;11.068;2023-05-02T02:26:37;57.60;;;51.33;;
3811;SDS011;1921;49.368;11.068;2023-05-02T02:29:03;56.50;;;50.63;;
3811;SDS011;1921;49.368;11.068;2023-05-02T02:31:29;55.47;;;49.70;;
3811;SDS011;1921;49.368;11.068;2023-05-02T02:33:59;56.67;;;50.47;;
3811;SDS011;1921;49.368;11.068;2023-05-02T02:36:28;56.77;;;50.80;;
3811;SDS011;1921;49.368;11.068;2023-05-02T02:42:12;58.30;;;51.40;;
3811;SDS011;1921;49.368;11.068;2023-05-02T02:45:08;56.60;;;50.50;;
3811;SDS011;1921;49.368;11.068;2023-05-02T02:51:12;49.00;;;44.80;;
3811;SDS011;1921;49.368;11.068;2023-05-02T02:56:44;56.37;;;50.37;;
3811;SDS011;1921;49.368;11.068;2023-05-02T02:59:17;55.37;;;49.67;;
3811;SDS011;1921;49.368;11.068;2023-05-02T03:02:04;56.73;;;50.63;;
3811;SDS011;1921;49.368;11.068;2023-05-02T03:04:33;54.93;;;49.43;;
3811;SDS011;1921;49.368;11.068;2023-05-02T03:07:02;51.17;;;46.40;;
3811;SDS011;1921;49.368;11.068;2023-05-02T03:09:38;46.00;;;42.30;;
3811;SDS011;1921;49.368;11.068;2023-05-02T03:12:08;52.60;;;47.70;;
3811;SDS011;1921;49.368;11.068;2023-05-02T03:14:35;55.27;;;48.50;;
3811;SDS011;1921;49.368;11.068;2023-05-02T03:17:01;55.80;;;50.23;;
3811;SDS011;1921;49.368;11.068;2023-05-02T03:19:27;57.10;;;51.13;;
3811;SDS011;1921;49.368;11.068;2023-05-02T03:21:54;56.13;;;50.07;;
3811;SDS011;1921;49.368;11.068;2023-05-02T03:24:20;55.03;;;49.50;;
3811;SDS011;1921;49.368;11.068;2023-05-02T03:26:46;58.00;;;51.73;;
3811;SDS011;1921;49.368;11.068;2023-05-02T03:29:12;59.20;;;52.00;;
3811;SDS011;1921;49.368;11.068;2023-05-02T03:31:39;59.17;;;50.87;;
3811;SDS011;1921;49.368;11.068;2023-05-02T03:34:05;57.60;;;51.50;;
3811;SDS011;1921;49.368;11.068;2023-05-02T03:36:30;59.10;;;52.60;;
3811;SDS011;1921;49.368;11.068;2023-05-02T03:38:56;56.63;;;50.57;;
3811;SDS011;1921;49.368;11.068;2023-05-02T03:41:22;77.23;;;53.90;;
3811;SDS011;1921;49.368;11.068;2023-05-02T03:43:49;57.63;;;51.53;;
3811;SDS011;1921;49.368;11.068;2023-05-02T03:46:15;57.20;;;51.30;;
3811;SDS011;1921;49.368;11.068;2023-05-02T03:48:41;58.00;;;51.77;;
3811;SDS011;1921;49.368;11.068;2023-05-02T03:51:07;59.10;;;52.33;;
3811;SDS011;1921;49.368;11.068;2023-05-02T03:53:33;58.97;;;52.57;;
3811;SDS011;1921;49.368;11.068;2023-05-02T03:55:59;57.43;;;51.27;;
3811;SDS011;1921;49.368;11.068;2023-05-02T03:58:25;60.77;;;52.13;;
3811;SDS011;1921;49.368;11.068;2023-05-02T04:00:52;61.70;;;52.80;;
3811;SDS011;1921;49.368;11.068;2023-05-02T04:03:19;59.37;;;53.00;;
3811;SDS011;1921;49.368;11.068;2023-05-02T04:05:45;68.13;;;54.93;;
3811;SDS011;1921;49.368;11.068;2023-05-02T04:08:11;66.47;;;53.47;;
3811;SDS011;1921;49.368;11.068;2023-05-02T04:10:37;66.63;;;53.70;;
3811;SDS011;1921;49.368;11.068;2023-05-02T04:13:03;60.83;;;53.20;;
3811;SDS011;1921;49.368;11.068;2023-05-02T04:15:32;59.07;;;52.70;;
3811;SDS011;1921;49.368;11.068;2023-05-02T04:18:05;63.77;;;52.40;;
3811;SDS011;1921;49.368;11.068;2023-05-02T04:20:31;61.37;;;53.93;;
3811;SDS011;1921;49.368;11.068;2023-05-02T04:22:57;65.80;;;53.43;;
3811;SDS011;1921;49.368;11.068;2023-05-02T04:25:23;58.10;;;51.90;;
3811;SDS011;1921;49.368;11.068;2023-05-02T04:27:49;58.37;;;52.03;;
3811;SDS011;1921;49.368;11.068;2023-05-02T04:30:14;58.33;;;51.93;;
3811;SDS011;1921;49.368;11.068;2023-05-02T04:32:40;59.53;;;52.80;;
3811;SDS011;1921;49.368;11.068;2023-05-02T04:35:06;58.73;;;52.37;;
3811;SDS011;1921;49.368;11.068;2023-05-02T04:37:33;64.60;;;54.07;;
3811;SDS011;1921;49.368;11.068;2023-05-02T04:40:01;60.97;;;52.03;;
3811;SDS011;1921;49.368;11.068;2023-05-02T04:42:28;59.13;;;52.70;;
3811;SDS011;1921;49.368;11.068;2023-05-02T04:44:53;58.37;;;51.73;;
3811;SDS011;1921;49.368;11.068;2023-05-02T04:47:19;60.53;;;53.90;;
3811;SDS011;1921;49.368;11.068;2023-05-02T04:49:45;60.20;;;53.70;;
3811;SDS011;1921;49.368;11.068;2023-05-02T04:52:11;58.67;;;52.60;;
3811;SDS011;1921;49.368;11.068;2023-05-02T04:54:36;61.03;;;52.67;;
3811;SDS011;1921;49.368;11.068;2023-05-02T04:57:02;60.27;;;53.77;;
3811;SDS011;1921;49.368;11.068;2023-05-02T04:59:30;59.77;;;53.37;;
3811;SDS011;1921;49.368;11.068;2023-05-02T05:01:56;59.40;;;53.10;;
3811;SDS011;1921;49.368;11.068;2023-05-02T05:04:23;60.80;;;53.10;;
3811;SDS011;1921;49.368;11.068;2023-05-02T05:06:49;61.57;;;53.00;;
3811;SDS011;1921;49.368;11.068;2023-05-02T05:09:14;59.90;;;53.20;;
3811;SDS011;1921;49.368;11.068;2023-05-02T05:11:40;56.20;;;50.30;;
3811;SDS011;1921;49.368;11.068;2023-05-02T05:14:10;52.70;;;47.23;;
3811;SDS011;1921;49.368;11.068;2023-05-02T05:16:36;51.33;;;45.80;;
3811;SDS011;1921;49.368;11.068;2023-05-02T05:19:02;50.30;;;45.60;;
3811;SDS011;1921;49.368;11.068;2023-05-02T05:21:31;47.90;;;43.60;;
3811;SDS011;1921;49.368;11.068;2023-05-02T05:23:57;49.73;;;45.17;;
3811;SDS011;1921;49.368;11.068;2023-05-02T05:26:23;48.37;;;44.00;;
3811;SDS011;1921;49.368;11.068;2023-05-02T05:28:49;48.47;;;43.97;;
3811;SDS011;1921;49.368;11.068;2023-05-02T05:31:15;49.90;;;45.03;;
3811;SDS011;1921;49.368;11.068;2023-05-02T05:33:41;50.30;;;45.50;;
3811;SDS011;1921;49.368;11.068;2023-05-02T05:36:11;50.00;;;45.20;;
3811;SDS011;1921;49.368;11.068;2023-05-02T05:38:41;50.47;;;45.83;;
3811;SDS011;1921;49.368;11.068;2023-05-02T05:41:07;50.60;;;45.70;;
3811;SDS011;1921;49.368;11.068;2023-05-02T05:43:33;52.47;;;47.37;;
3811;SDS011;1921;49.368;11.068;2023-05-02T05:45:59;49.20;;;44.60;;
3811;SDS011;1921;49.368;11.068;2023-05-02T05:48:25;50.50;;;45.67;;
3811;SDS011;1921;49.368;11.068;2023-05-02T05:50:51;52.47;;;46.80;;
3811;SDS011;1921;49.368;11.068;2023-05-02T05:53:17;51.30;;;46.10;;
3811;SDS011;1921;49.368;11.068;2023-05-02T05:55:43;51.90;;;46.53;;
3811;SDS011;1921;49.368;11.068;2023-05-02T05:58:10;51.40;;;46.30;;
3811;SDS011;1921;49.368;11.068;2023-05-02T06:00:36;52.67;;;47.10;;
3811;SDS011;1921;49.368;11.068;2023-05-02T06:03:03;51.67;;;46.40;;
3811;SDS011;1921;49.368;11.068;2023-05-02T06:05:30;52.07;;;46.90;;
3811;SDS011;1921;49.368;11.068;2023-05-02T06:07:57;51.03;;;45.83;;
3811;SDS011;1921;49.368;11.068;2023-05-02T06:10:23;51.90;;;46.60;;
3811;SDS011;1921;49.368;11.068;2023-05-02T06:12:49;53.93;;;47.50;;
3811;SDS011;1921;49.368;11.068;2023-05-02T06:15:14;52.53;;;47.33;;
3811;SDS011;1921;49.368;11.068;2023-05-02T06:17:41;52.67;;;47.37;;
3811;SDS011;1921;49.368;11.068;2023-05-02T06:20:07;52.53;;;46.97;;
3811;SDS011;1921;49.368;11.068;2023-05-02T06:22:33;66.83;;;47.00;;
3811;SDS011;1921;49.368;11.068;2023-05-02T06:25:00;51.33;;;46.33;;
3811;SDS011;1921;49.368;11.068;2023-05-02T06:27:25;51.70;;;46.40;;
3811;SDS011;1921;49.368;11.068;2023-05-02T06:29:51;52.97;;;47.60;;
3811;SDS011;1921;49.368;11.068;2023-05-02T06:32:17;52.63;;;47.23;;
3811;SDS011;1921;49.368;11.068;2023-05-02T06:34:43;52.67;;;47.27;;
3811;SDS011;1921;49.368;11.068;2023-05-02T06:37:09;52.23;;;46.97;;
3811;SDS011;1921;49.368;11.068;2023-05-02T06:39:35;53.60;;;47.80;;
3811;SDS011;1921;49.368;11.068;2023-05-02T06:42:01;51.77;;;46.57;;
3811;SDS011;1921;49.368;11.068;2023-05-02T06:44:27;51.50;;;46.40;;
3811;SDS011;1921;49.368;11.068;2023-05-02T06:46:53;52.43;;;47.03;;
3811;SDS011;1921;49.368;11.068;2023-05-02T06:49:20;53.57;;;47.27;;
3811;SDS011;1921;49.368;11.068;2023-05-02T06:51:49;51.83;;;46.63;;
3811;SDS011;1921;49.368;11.068;2023-05-02T06:54:15;51.27;;;46.07;;
3811;SDS011;1921;49.368;11.068;2023-05-02T06:56:41;51.43;;;46.33;;
3811;SDS011;1921;49.368;11.068;2023-05-02T06:59:08;53.20;;;47.80;;
3811;SDS011;1921;49.368;11.068;2023-05-02T07:01:34;53.30;;;47.80;;
3811;SDS011;1921;49.368;11.068;2023-05-02T07:04:00;52.03;;;46.83;;
3811;SDS011;1921;49.368;11.068;2023-05-02T07:06:29;51.47;;;46.37;;
3811;SDS011;1921;49.368;11.068;2023-05-02T07:08:56;52.60;;;47.30;;
3811;SDS011;1921;49.368;11.068;2023-05-02T07:11:22;54.10;;;48.23;;
3811;SDS011;1921;49.368;11.068;2023-05-02T07:13:48;53.37;;;47.53;;
3811;SDS011;1921;49.368;11.068;2023-05-02T07:16:14;53.13;;;47.60;;
3811;SDS011;1921;49.368;11.068;2023-05-02T07:18:40;52.30;;;47.00;;
3811;SDS011;1921;49.368;11.068;2023-05-02T07:21:08;52.70;;;47.10;;
3811;SDS011;1921;49.368;11.068;2023-05-02T07:23:34;53.47;;;47.87;;
3811;SDS011;1921;49.368;11.068;2023-05-02T07:25:59;52.97;;;47.47;;
3811;SDS011;1921;49.368;11.068;2023-05-02T07:28:26;52.63;;;47.33;;
3811;SDS011;1921;49.368;11.068;2023-05-02T07:30:52;53.03;;;47.53;;
3811;SDS011;1921;49.368;11.068;2023-05-02T07:33:17;52.13;;;46.70;;
3811;SDS011;1921;49.368;11.068;2023-05-02T07:35:43;53.83;;;48.23;;
3811;SDS011;1921;49.368;11.068;2023-05-02T07:38:09;52.23;;;46.83;;
3811;SDS011;1921;49.368;11.068;2023-05-02T07:40:35;53.77;;;47.77;;
3811;SDS011;1921;49.368;11.068;2023-05-02T07:43:00;52.30;;;47.10;;
3811;SDS011;1921;49.368;11.068;2023-05-02T07:45:26;52.13;;;46.83;;
3811;SDS011;1921;49.368;11.068;2023-05-02T07:47:52;53.43;;;47.93;;
3811;SDS011;1921;49.368;11.068;2023-05-02T07:50:18;52.93;;;46.90;;
3811;SDS011;1921;49.368;11.068;2023-05-02T07:52:44;55.63;;;47.43;;
3811;SDS011;1921;49.368;11.068;2023-05-02T07:55:09;53.37;;;48.00;;
3811;SDS011;1921;49.368;11.068;2023-05-02T07:57:36;51.60;;;46.40;;
3811;SDS011;1921;49.368;11.068;2023-05-02T08:00:01;53.77;;;47.97;;
3811;SDS011;1921;49.368;11.068;2023-05-02T08:02:31;52.77;;;47.30;;
3811;SDS011;1921;49.368;11.068;2023-05-02T08:04:57;52.73;;;47.30;;
3811;SDS011;1921;49.368;11.068;2023-05-02T08:07:23;51.93;;;46.40;;
3811;SDS011;1921;49.368;11.068;2023-05-02T08:09:49;52.10;;;46.70;;
3811;SDS011;1921;49.368;11.068;2023-05-02T08:12:14;53.27;;;47.63;;
3811;SDS011;1921;49.368;11.068;2023-05-02T08:14:40;51.77;;;46.53;;
3811;SDS011;1921;49.368;11.068;2023-05-02T08:17:06;52.70;;;47.17;;
3811;SDS011;1921;49.368;11.068;2023-05-02T08:19:31;51.77;;;46.50;;
3811;SDS011;1921;49.368;11.068;2023-05-02T08:21:57;50.73;;;45.73;;
3811;SDS011;1921;49.368;11.068;2023-05-02T08:24:23;50.93;;;45.90;;
3811;SDS011;1921;49.368;11.068;2023-05-02T08:26:49;53.93;;;48.30;;
3811;SDS011;1921;49.368;11.068;2023-05-02T08:29:15;51.60;;;46.23;;
3811;SDS011;1921;49.368;11.068;2023-05-02T08:31:41;50.90;;;45.90;;
3811;SDS011;1921;49.368;11.068;2023-05-02T08:34:09;52.10;;;46.70;;
3811;SDS011;1921;49.368;11.068;2023-05-02T08:36:35;52.53;;;47.07;;
3811;SDS011;1921;49.368;11.068;2023-05-02T08:39:01;53.43;;;47.90;;
3811;SDS011;1921;49.368;11.068;2023-05-02T08:41:27;50.87;;;45.87;;
3811;SDS011;1921;49.368;11.068;2023-05-02T08:43:55;59.93;;;47.40;;
3811;SDS011;1921;49.368;11.068;2023-05-02T08:46:21;53.17;;;47.83;;
3811;SDS011;1921;49.368;11.068;2023-05-02T08:48:47;52.67;;;47.27;;
3811;SDS011;1921;49.368;11.068;2023-05-02T08:51:15;52.40;;;46.70;;
3811;SDS011;1921;49.368;11.068;2023-05-02T08:53:43;53.10;;;47.50;;
3811;SDS011;1921;49.368;11.068;2023-05-02T08:56:09;52.53;;;47.10;;
3811;SDS011;1921;49.368;11.068;2023-05-02T08:58:37;54.80;;;49.10;;
3811;SDS011;1921;49.368;11.068;2023-05-02T09:01:14;54.40;;;48.60;;
3811;SDS011;1921;49.368;11.068;2023-05-02T09:03:42;53.30;;;47.80;;
3811;SDS011;1921;49.368;11.068;2023-05-02T09:06:20;58.80;;;49.07;;
3811;SDS011;1921;49.368;11.068;2023-05-02T09:08:47;55.50;;;49.03;;
3811;SDS011;1921;49.368;11.068;2023-05-02T09:11:16;54.20;;;48.40;;
3811;SDS011;1921;49.368;11.068;2023-05-02T09:13:43;60.40;;;49.60;;
3811;SDS011;1921;49.368;11.068;2023-05-02T09:16:12;55.50;;;49.50;;
3811;SDS011;1921;49.368;11.068;2023-05-02T09:18:53;54.27;;;48.37;;
3811;SDS011;1921;49.368;11.068;2023-05-02T09:21:24;55.33;;;49.30;;
3811;SDS011;1921;49.368;11.068;2023-05-02T09:24:00;55.67;;;49.20;;
3811;SDS011;1921;49.368;11.068;2023-05-02T09:26:28;56.10;;;49.70;;
3811;SDS011;1921;49.368;11.068;2023-05-02T09:28:56;61.80;;;49.70;;
3811;SDS011;1921;49.368;11.068;2023-05-02T09:31:29;59.13;;;50.63;;
3811;SDS011;1921;49.368;11.068;2023-05-02T09:34:08;58.63;;;50.37;;
3811;SDS011;1921;49.368;11.068;2023-05-02T09:36:40;61.83;;;51.67;;
3811;SDS011;1921;49.368;11.068;2023-05-02T09:39:08;60.53;;;51.93;;
3811;SDS011;1921;49.368;11.068;2023-05-02T09:41:41;61.90;;;51.57;;
3811;SDS011;1921;49.368;11.068;2023-05-02T09:44:09;61.57;;;51.40;;
3811;SDS011;1921;49.368;11.068;2023-05-02T09:46:40;60.07;;;50.97;;
3811;SDS011;1921;49.368;11.068;2023-05-02T09:49:13;61.60;;;51.93;;
3811;SDS011;1921;49.368;11.068;2023-05-02T09:51:42;62.07;;;52.30;;
3811;SDS011;1921;49.368;11.068;2023-05-02T09:54:10;69.80;;;52.40;;
3811;SDS011;1921;49.368;11.068;2023-05-02T09:57:03;60.30;;;51.70;;
3811;SDS011;1921;49.368;11.068;2023-05-02T09:59:31;64.50;;;53.27;;
3811;SDS011;1921;49.368;11.068;2023-05-02T10:01:57;67.77;;;54.10;;
3811;SDS011;1921;49.368;11.068;2023-05-02T10:04:25;62.70;;;52.10;;
3811;SDS011;1921;49.368;11.068;2023-05-02T10:06:53;64.93;;;52.67;;
3811;SDS011;1921;49.368;11.068;2023-05-02T10:09:21;61.67;;;52.17;;
3811;SDS011;1921;49.368;11.068;2023-05-02T10:11:51;63.97;;;52.87;;
3811;SDS011;1921;49.368;11.068;2023-05-02T10:14:19;65.95;;;51.80;;
3811;SDS011;1921;49.368;11.068;2023-05-02T10:17:03;63.20;;;51.67;;
3811;SDS011;1921;49.368;11.068;2023-05-02T10:20:02;63.57;;;52.13;;
3811;SDS011;1921;49.368;11.068;2023-05-02T10:22:32;60.00;;;50.70;;
3811;SDS011;1921;49.368;11.068;2023-05-02T10:24:59;58.50;;;51.37;;
3811;SDS011;1921;49.368;11.068;2023-05-02T10:27:28;62.03;;;51.67;;
3811;SDS011;1921;49.368;11.068;2023-05-02T10:29:59;63.80;;;51.80;;
3811;SDS011;1921;49.368;11.068;2023-05-02T10:32:28;60.63;;;51.23;;
3811;SDS011;1921;49.368;11.068;2023-05-02T10:34:56;60.60;;;51.17;;
3811;SDS011;1921;49.368;11.068;2023-05-02T10:37:29;58.63;;;50.70;;
3811;SDS011;1921;49.368;11.068;2023-05-02T10:39:57;62.10;;;51.83;;
3811;SDS011;1921;49.368;11.068;2023-05-02T10:42:24;59.10;;;51.27;;
3811;SDS011;1921;49.368;11.068;2023-05-02T10:44:51;63.20;;;52.83;;
3811;SDS011;1921;49.368;11.068;2023-05-02T10:49:54;59.47;;;51.93;;
3811;SDS011;1921;49.368;11.068;2023-05-02T10:52:35;55.90;;;49.70;;
3811;SDS011;1921;49.368;11.068;2023-05-02T10:55:12;58.43;;;50.83;;
3811;SDS011;1921;49.368;11.068;2023-05-02T11:00:31;59.47;;;50.70;;
3811;SDS011;1921;49.368;11.068;2023-05-02T11:02:58;57.00;;;49.97;;
3811;SDS011;1921;49.368;11.068;2023-05-02T11:05:25;59.17;;;51.10;;
3811;SDS011;1921;49.368;11.068;2023-05-02T11:10:39;61.80;;;52.10;;
3811;SDS011;1921;49.368;11.068;2023-05-02T11:13:05;59.60;;;51.30;;
3811;SDS011;1921;49.368;11.068;2023-05-02T11:18:00;56.47;;;50.27;;
3811;SDS011;1921;49.368;11.068;2023-05-02T11:20:31;60.17;;;51.63;;
3811;SDS011;1921;49.368;11.068;2023-05-02T11:23:18;59.17;;;51.30;;
3811;SDS011;1921;49.368;11.068;2023-05-02T11:25:46;56.97;;;50.00;;
3811;SDS011;1921;49.368;11.068;2023-05-02T11:30:58;62.63;;;51.30;;
3811;SDS011;1921;49.368;11.068;2023-05-02T11:33:54;58.23;;;50.50;;
3811;SDS011;1921;49.368;11.068;2023-05-02T11:36:31;57.17;;;49.20;;
3811;SDS011;1921;49.368;11.068;2023-05-02T11:38:59;59.90;;;51.20;;
3811;SDS011;1921;49.368;11.068;2023-05-02T11:41:42;56.30;;;49.10;;
3811;SDS011;1921;49.368;11.068;2023-05-02T11:44:08;56.20;;;49.40;;
3811;SDS011;1921;49.368;11.068;2023-05-02T11:46:37;58.37;;;50.07;;
3811;SDS011;1921;49.368;11.068;2023-05-02T11:49:04;58.27;;;50.83;;
3811;SDS011;1921;49.368;11.068;2023-05-02T11:51:31;58.67;;;50.40;;
3811;SDS011;1921;49.368;11.068;2023-05-02T11:53:57;59.53;;;49.83;;
3811;SDS011;1921;49.368;11.068;2023-05-02T11:56:23;60.70;;;51.33;;
3811;SDS011;1921;49.368;11.068;2023-05-02T11:58:57;59.33;;;50.20;;
3811;SDS011;1921;49.368;11.068;2023-05-02T12:01:24;59.73;;;51.03;;
3811;SDS011;1921;49.368;11.068;2023-05-02T12:04:00;58.40;;;51.10;;
3811;SDS011;1921;49.368;11.068;2023-05-02T12:06:35;65.57;;;51.00;;
3811;SDS011;1921;49.368;11.068;2023-05-02T12:09:05;57.73;;;50.67;;
3811;SDS011;1921;49.368;11.068;2023-05-02T12:11:38;59.37;;;50.80;;
3811;SDS011;1921;49.368;11.068;2023-05-02T12:14:04;61.43;;;50.17;;
3811;SDS011;1921;49.368;11.068;2023-05-02T12:16:30;57.40;;;50.33;;
3811;SDS011;1921;49.368;11.068;2023-05-02T12:18:56;57.27;;;49.80;;
3811;SDS011;1921;49.368;11.068;2023-05-02T12:21:25;65.13;;;50.50;;
3811;SDS011;1921;49.368;11.068;2023-05-02T12:23:54;56.20;;;49.77;;
3811;SDS011;1921;49.368;11.068;2023-05-02T12:26:21;56.80;;;50.13;;
3811;SDS011;1921;49.368;11.068;2023-05-02T12:28:56;58.90;;;49.97;;
3811;SDS011;1921;49.368;11.068;2023-05-02T12:31:23;58.67;;;50.60;;
3811;SDS011;1921;49.368;11.068;2023-05-02T12:33:49;56.20;;;49.87;;
3811;SDS011;1921;49.368;11.068;2023-05-02T12:36:19;61.20;;;50.67;;
3811;SDS011;1921;49.368;11.068;2023-05-02T12:38:48;57.77;;;50.37;;
3811;SDS011;1921;49.368;11.068;2023-05-02T12:41:18;57.87;;;50.23;;
3811;SDS011;1921;49.368;11.068;2023-05-02T12:43:57;59.03;;;50.60;;
3811;SDS011;1921;49.368;11.068;2023-05-02T12:46:24;58.30;;;50.53;;
3811;SDS011;1921;49.368;11.068;2023-05-02T12:51:33;59.23;;;51.00;;
3811;SDS011;1921;49.368;11.068;2023-05-02T12:54:01;59.50;;;51.33;;
3811;SDS011;1921;49.368;11.068;2023-05-02T12:56:28;58.23;;;51.30;;
3811;SDS011;1921;49.368;11.068;2023-05-02T12:58:56;58.10;;;50.43;;
3811;SDS011;1921;49.368;11.068;2023-05-02T13:01:28;56.87;;;49.47;;
3811;SDS011;1921;49.368;11.068;2023-05-02T13:03:56;57.23;;;50.30;;
3811;SDS011;1921;49.368;11.068;2023-05-02T13:06:22;55.17;;;49.17;;
3811;SDS011;1921;49.368;11.068;2023-05-02T13:08:47;54.53;;;48.63;;
3811;SDS011;1921;49.368;11.068;2023-05-02T13:11:13;54.70;;;48.80;;
3811;SDS011;1921;49.368;11.068;2023-05-02T13:13:39;55.07;;;49.17;;
3811;SDS011;1921;49.368;11.068;2023-05-02T13:16:05;53.40;;;47.60;;
3811;SDS011;1921;49.368;11.068;2023-05-02T13:18:31;54.30;;;48.50;;
3811;SDS011;1921;49.368;11.068;2023-05-02T13:20:57;53.00;;;47.43;;
3811;SDS011;1921;49.368;11.068;2023-05-02T13:23:23;53.47;;;47.67;;
3811;SDS011;1921;49.368;11.068;2023-05-02T13:25:49;52.80;;;47.30;;
3811;SDS011;1921;49.368;11.068;2023-05-02T13:28:14;52.00;;;46.70;;
3811;SDS011;1921;49.368;11.068;2023-05-02T13:30:40;52.17;;;46.77;;
3811;SDS011;1921;49.368;11.068;2023-05-02T13:33:06;52.00;;;46.80;;
3811;SDS011;1921;49.368;11.068;2023-05-02T13:35:32;50.93;;;45.83;;
